createdAt,value
2023-03-29T00:00:39.006Z,89.90
2023-03-29T00:03:10.316Z,89.46
2023-03-29T00:05:42.301Z,90.16
2023-03-29T00:08:15.766Z,89.68
2023-03-29T00:10:50.869Z,89.59
2023-03-29T00:13:22.564Z,89.29
2023-03-29T00:15:52.489Z,89.96
2023-03-29T00:18:22.552Z,89.88
2023-03-29T00:21:00.701Z,89.97
2023-03-29T00:23:32.056Z,89.97
2023-03-29T00:26:04.688Z,90.13
2023-03-29T00:28:36.513Z,90.11
2023-03-29T00:31:15.791Z,90.73
2023-03-29T00:33:48.299Z,90.56
2023-03-29T00:36:18.254Z,91.19
2023-03-29T00:38:48.233Z,91.09
2023-03-29T00:41:19.610Z,91.44
2023-03-29T00:43:57.973Z,91.64
2023-03-29T00:46:30.782Z,91.47
2023-03-29T00:49:09.041Z,91.38
2023-03-29T00:51:43.034Z,91.67
2023-03-29T00:54:20.771Z,91.44
2023-03-29T00:56:52.764Z,90.55
2023-03-29T00:59:29.988Z,90.50
2023-03-29T01:02:04.251Z,90.20
2023-03-29T01:05:01.317Z,89.48
2023-03-29T01:07:59.777Z,88.92
2023-03-29T01:10:39.350Z,88.71
2023-03-29T01:13:18.409Z,88.58
2023-03-29T01:15:50.230Z,89.25
2023-03-29T01:18:23.279Z,89.05
2023-03-29T01:21:30.451Z,88.81
2023-03-29T01:24:28.811Z,88.99
2023-03-29T01:27:36.089Z,89.35
2023-03-29T01:30:21.110Z,89.63
2023-03-29T01:33:03.013Z,90.33
2023-03-29T01:35:59.823Z,90.48
2023-03-29T01:38:32.491Z,90.90
2023-03-29T01:41:04.875Z,91.52
2023-03-29T01:43:47.710Z,91.85
2023-03-29T01:46:28.245Z,92.27
2023-03-29T01:49:16.678Z,92.53
2023-03-29T01:52:01.277Z,92.77
2023-03-29T01:54:40.224Z,92.95
2023-03-29T01:57:13.653Z,93.18
2023-03-29T01:59:47.875Z,93.12
2023-03-29T02:02:22.312Z,93.65
2023-03-29T02:04:56.548Z,93.84
2023-03-29T02:07:32.434Z,94.12
2023-03-29T02:10:03.250Z,94.34
2023-03-29T02:12:34.189Z,94.38
2023-03-29T02:15:05.801Z,94.53
2023-03-29T02:17:38.011Z,94.63
2023-03-29T02:20:22.369Z,94.73
2023-03-29T02:23:16.297Z,94.53
2023-03-29T02:25:47.065Z,94.67
2023-03-29T02:28:17.664Z,94.86
2023-03-29T02:31:07.992Z,95.00
2023-03-29T02:34:03.844Z,94.92
2023-03-29T02:36:55.606Z,94.95
2023-03-29T02:39:32.940Z,95.31
2023-03-29T02:42:05.146Z,95.68
2023-03-29T02:44:41.534Z,95.71
2023-03-29T02:47:29.735Z,95.64
2023-03-29T02:50:01.833Z,95.79
2023-03-29T02:52:41.266Z,96.02
2023-03-29T02:55:19.099Z,96.02
2023-03-29T02:57:49.137Z,96.24
2023-03-29T03:00:25.124Z,96.19
2023-03-29T03:02:56.311Z,96.35
2023-03-29T03:05:27.956Z,96.54
2023-03-29T03:07:59.543Z,96.53
2023-03-29T03:10:29.440Z,96.51
2023-03-29T03:13:00.675Z,96.83
2023-03-29T03:15:37.922Z,96.93
2023-03-29T03:18:08.327Z,97.07
2023-03-29T03:20:38.248Z,97.06
2023-03-29T03:23:10.805Z,97.34
2023-03-29T03:25:42.411Z,97.23
2023-03-29T03:28:12.595Z,97.43
2023-03-29T03:30:43.003Z,97.56
2023-03-29T03:33:29.476Z,97.47
2023-03-29T03:36:32.742Z,97.68
2023-03-29T03:39:08.455Z,97.85
2023-03-29T03:41:38.385Z,98.01
2023-03-29T03:44:08.215Z,97.96
2023-03-29T03:46:39.578Z,98.03
2023-03-29T03:49:10.768Z,98.00
2023-03-29T03:51:46.461Z,98.23
2023-03-29T03:54:20.209Z,98.19
2023-03-29T03:57:10.253Z,98.12
2023-03-29T03:59:48.972Z,98.14
2023-03-29T04:02:29.152Z,98.15
2023-03-29T04:05:04.121Z,98.13
2023-03-29T04:07:38.669Z,98.10
2023-03-29T04:10:27.721Z,98.21
2023-03-29T04:13:25.568Z,98.20
2023-03-29T04:16:14.112Z,98.30
2023-03-29T04:18:45.368Z,98.42
2023-03-29T04:21:18.841Z,98.57
2023-03-29T04:23:51.194Z,98.56
2023-03-29T04:26:23.289Z,98.41
2023-03-29T04:28:59.716Z,98.49
2023-03-29T04:31:47.734Z,97.88
2023-03-29T04:34:42.882Z,98.44
2023-03-29T04:37:13.393Z,98.51
2023-03-29T04:39:44.298Z,98.57
2023-03-29T04:42:16.532Z,98.46
2023-03-29T04:44:48.697Z,98.67
2023-03-29T04:47:26.113Z,98.59
2023-03-29T04:50:03.038Z,98.61
2023-03-29T04:52:42.148Z,98.48
2023-03-29T04:55:14.401Z,98.64
2023-03-29T04:57:52.822Z,98.66
2023-03-29T05:00:29.759Z,98.93
2023-03-29T05:03:21.001Z,98.80
2023-03-29T05:06:10.461Z,98.78
2023-03-29T05:08:42.660Z,98.73
2023-03-29T05:11:25.754Z,98.85
2023-03-29T05:14:01.788Z,98.71
2023-03-29T05:16:35.832Z,98.71
2023-03-29T05:19:07.818Z,98.52
2023-03-29T05:21:41.737Z,98.73
2023-03-29T05:24:17.697Z,98.23
2023-03-29T05:26:57.948Z,98.78
2023-03-29T05:29:30.849Z,98.62
2023-03-29T05:32:15.675Z,98.80
2023-03-29T05:34:46.266Z,98.78
2023-03-29T05:37:17.065Z,98.84
2023-03-29T05:40:06.190Z,98.87
2023-03-29T05:42:44.850Z,98.89
2023-03-29T05:45:15.960Z,98.77
2023-03-29T05:47:46.621Z,98.77
2023-03-29T05:50:16.538Z,98.77
2023-03-29T05:52:47.231Z,98.27
2023-03-29T05:55:17.163Z,98.24
2023-03-29T05:57:47.971Z,98.03
2023-03-29T06:00:24.969Z,98.10
2023-03-29T06:03:13.623Z,98.41
2023-03-29T06:05:51.192Z,98.27
2023-03-29T06:08:23.468Z,98.66
2023-03-29T06:11:25.397Z,98.66
2023-03-29T06:14:16.501Z,98.81
2023-03-29T06:16:53.460Z,98.99
2023-03-29T06:19:25.447Z,98.98
2023-03-29T06:21:57.481Z,98.99
2023-03-29T06:24:30.460Z,99.09
2023-03-29T06:27:08.608Z,98.74
2023-03-29T06:29:40.024Z,98.56
2023-03-29T06:32:12.195Z,98.48
2023-03-29T06:34:50.982Z,98.11
2023-03-29T06:37:42.422Z,98.19
2023-03-29T06:40:35.860Z,98.19
2023-03-29T06:43:08.092Z,98.06
2023-03-29T06:46:00.936Z,98.02
2023-03-29T06:48:44.703Z,97.97
2023-03-29T06:51:17.378Z,98.04
2023-03-29T06:53:47.850Z,97.69
2023-03-29T06:56:19.427Z,97.56
2023-03-29T06:58:56.724Z,97.84
2023-03-29T07:01:39.206Z,97.93
2023-03-29T07:04:21.168Z,98.18
2023-03-29T07:07:21.197Z,97.79
2023-03-29T07:09:57.138Z,97.88
2023-03-29T07:13:00.975Z,97.59
2023-03-29T07:15:32.553Z,97.58
2023-03-29T07:18:28.725Z,97.77
2023-03-29T07:20:59.677Z,97.79
2023-03-29T07:23:29.969Z,97.71
2023-03-29T07:26:00.934Z,97.74
2023-03-29T07:28:32.938Z,97.95
2023-03-29T07:31:08.340Z,97.99
2023-03-29T07:33:45.118Z,97.86
2023-03-29T07:36:17.216Z,97.94
2023-03-29T07:38:47.503Z,97.76
2023-03-29T07:41:22.807Z,97.91
2023-03-29T07:43:58.912Z,97.89
2023-03-29T07:46:30.842Z,97.86
2023-03-29T07:49:01.789Z,97.80
2023-03-29T07:51:32.596Z,97.59
2023-03-29T07:54:09.264Z,97.89
2023-03-29T07:57:14.676Z,97.52
2023-03-29T07:59:50.957Z,96.96
2023-03-29T08:02:25.880Z,96.95
2023-03-29T08:05:00.461Z,96.97
2023-03-29T08:07:34.571Z,97.21
2023-03-29T08:10:25.384Z,97.17
2023-03-29T08:13:08.686Z,97.28
2023-03-29T08:15:51.363Z,97.42
2023-03-29T08:18:34.929Z,97.81
2023-03-29T08:21:06.699Z,97.77
2023-03-29T08:23:37.870Z,97.59
2023-03-29T08:26:22.531Z,97.72
2023-03-29T08:28:54.645Z,97.68
2023-03-29T08:31:26.867Z,97.64
2023-03-29T08:33:57.798Z,97.80
2023-03-29T08:37:05.224Z,97.87
2023-03-29T08:39:46.538Z,97.65
2023-03-29T08:43:00.830Z,97.38
2023-03-29T08:45:58.385Z,97.54
2023-03-29T08:48:46.898Z,97.94
2023-03-29T08:51:48.013Z,97.54
2023-03-29T08:54:26.612Z,97.30
2023-03-29T08:57:46.959Z,96.84
2023-03-29T09:00:42.200Z,97.19
2023-03-29T09:03:40.113Z,97.08
2023-03-29T09:06:24.105Z,97.40
2023-03-29T09:09:00.749Z,97.66
2023-03-29T09:11:46.588Z,97.56
2023-03-29T09:14:45.394Z,97.18
2023-03-29T09:17:24.684Z,96.87
2023-03-29T09:20:32.644Z,96.31
2023-03-29T09:23:14.696Z,96.77
2023-03-29T09:26:49.702Z,96.69
2023-03-29T09:29:53.233Z,97.14
2023-03-29T09:32:53.902Z,97.44
2023-03-29T09:35:40.757Z,97.25
2023-03-29T09:38:15.287Z,97.02
2023-03-29T09:40:51.707Z,97.20
2023-03-29T09:43:39.318Z,97.39
2023-03-29T09:46:46.523Z,97.30
2023-03-29T09:49:24.792Z,97.37
2023-03-29T09:52:01.178Z,97.28
2023-03-29T09:54:32.124Z,97.47
2023-03-29T09:57:08.166Z,97.56
2023-03-29T09:59:38.956Z,97.45
2023-03-29T10:02:13.610Z,97.31
2023-03-29T10:04:45.259Z,97.40
2023-03-29T10:07:21.709Z,97.33
2023-03-29T10:09:58.864Z,97.21
2023-03-29T10:12:30.737Z,97.06
2023-03-29T10:15:03.087Z,96.91
2023-03-29T10:17:41.748Z,96.80
2023-03-29T10:20:18.385Z,96.63
2023-03-29T10:22:56.736Z,96.48
2023-03-29T10:25:34.231Z,96.35
2023-03-29T10:28:16.402Z,95.92
2023-03-29T10:30:54.037Z,95.52
2023-03-29T10:33:27.093Z,95.16
2023-03-29T10:36:00.557Z,95.25
2023-03-29T10:38:31.930Z,94.78
2023-03-29T10:41:12.173Z,94.67
2023-03-29T10:43:51.465Z,94.45
2023-03-29T10:46:34.394Z,94.14
2023-03-29T10:49:11.241Z,93.80
2023-03-29T10:51:47.840Z,93.59
2023-03-29T10:54:23.897Z,93.37
2023-03-29T10:57:02.980Z,91.90
2023-03-29T10:59:32.867Z,91.14
2023-03-29T11:02:20.563Z,91.63
2023-03-29T11:05:21.349Z,90.43
2023-03-29T11:08:06.760Z,88.90
2023-03-29T11:10:58.077Z,86.39
2023-03-29T11:13:53.223Z,86.27
2023-03-29T11:16:34.991Z,82.28
2023-03-29T11:19:32.863Z,81.06
2023-03-29T11:22:25.670Z,73.83
2023-03-29T11:25:29.900Z,66.34
2023-03-29T11:28:28.410Z,62.78
2023-03-29T11:31:07.643Z,55.90
2023-03-29T11:34:04.773Z,57.40
2023-03-29T11:36:59.236Z,57.38
2023-03-29T11:39:48.757Z,50.99
2023-03-29T11:42:43.111Z,55.13
2023-03-29T11:45:18.904Z,53.16
2023-03-29T11:47:50.770Z,51.25
2023-03-29T11:50:33.120Z,52.26
2023-03-29T11:53:12.996Z,50.09
2023-03-29T11:55:44.774Z,51.01
2023-03-29T11:58:34.882Z,52.46
2023-03-29T12:01:17.233Z,54.71
2023-03-29T12:03:56.211Z,52.05
2023-03-29T12:06:44.695Z,54.97
2023-03-29T12:09:51.522Z,55.40
2023-03-29T12:12:46.599Z,53.33
2023-03-29T12:15:26.482Z,56.14
2023-03-29T12:18:03.127Z,56.52
2023-03-29T12:20:41.964Z,56.56
2023-03-29T12:23:18.093Z,55.51
2023-03-29T12:26:07.853Z,57.51
2023-03-29T12:29:14.571Z,58.75
2023-03-29T12:32:21.409Z,59.21
2023-03-29T12:35:38.901Z,60.38
2023-03-29T12:38:33.959Z,59.73
2023-03-29T12:41:24.926Z,59.93
2023-03-29T12:44:19.249Z,57.56
2023-03-29T12:47:05.264Z,59.87
2023-03-29T12:49:40.373Z,56.11
2023-03-29T12:52:25.746Z,56.41
2023-03-29T12:55:02.336Z,58.82
2023-03-29T12:58:02.216Z,58.88
2023-03-29T13:00:46.822Z,56.18
2023-03-29T13:03:51.074Z,58.63
2023-03-29T13:06:37.062Z,58.32
2023-03-29T13:09:31.445Z,58.65
2023-03-29T13:12:15.049Z,57.97
2023-03-29T13:14:51.590Z,57.32
2023-03-29T13:17:57.223Z,57.72
2023-03-29T13:20:54.881Z,57.28
2023-03-29T13:23:33.653Z,56.53
2023-03-29T13:26:25.523Z,59.23
2023-03-29T13:29:11.858Z,61.23
2023-03-29T13:32:01.547Z,60.36
2023-03-29T13:34:49.717Z,61.02
2023-03-29T13:37:22.169Z,60.63
2023-03-29T13:39:55.170Z,61.77
2023-03-29T13:42:43.298Z,63.55
2023-03-29T13:45:32.080Z,58.64
2023-03-29T13:48:06.915Z,59.68
2023-03-29T13:50:39.269Z,57.46
2023-03-29T13:53:23.487Z,59.54
2023-03-29T13:55:57.537Z,58.62
2023-03-29T13:58:59.189Z,56.85
2023-03-29T14:02:04.282Z,60.31
2023-03-29T14:04:48.206Z,59.48
2023-03-29T14:07:22.672Z,55.97
2023-03-29T14:09:57.176Z,57.18
2023-03-29T14:12:33.331Z,61.10
2023-03-29T14:15:06.053Z,57.28
2023-03-29T14:17:39.179Z,50.39
2023-03-29T14:20:11.287Z,53.41
2023-03-29T14:22:45.582Z,53.67
2023-03-29T14:25:22.315Z,52.63
2023-03-29T14:27:52.664Z,53.48
2023-03-29T14:30:28.502Z,50.00
2023-03-29T14:33:00.848Z,53.14
2023-03-29T14:35:34.320Z,52.33
2023-03-29T14:38:05.121Z,49.79
2023-03-29T14:40:36.776Z,48.70
2023-03-29T14:43:09.997Z,50.24
2023-03-29T14:45:41.593Z,54.01
2023-03-29T14:48:15.025Z,48.44
2023-03-29T14:50:48.350Z,50.84
2023-03-29T14:53:22.401Z,55.14
2023-03-29T14:55:54.564Z,53.68
2023-03-29T14:58:38.943Z,54.52
2023-03-29T15:01:19.984Z,52.75
2023-03-29T15:03:57.636Z,50.33
2023-03-29T15:06:29.290Z,48.97
2023-03-29T15:09:06.223Z,50.92
2023-03-29T15:11:40.886Z,48.29
2023-03-29T15:14:18.796Z,51.31
2023-03-29T15:16:50.966Z,52.77
2023-03-29T15:19:27.442Z,53.96
2023-03-29T15:21:59.930Z,58.23
2023-03-29T15:24:34.755Z,54.37
2023-03-29T15:27:26.601Z,51.51
2023-03-29T15:30:06.332Z,51.05
2023-03-29T15:32:39.878Z,52.94
2023-03-29T15:35:26.785Z,53.21
2023-03-29T15:37:57.591Z,52.54
2023-03-29T15:40:29.393Z,50.15
2023-03-29T15:43:00.232Z,51.70
2023-03-29T15:45:30.829Z,47.46
2023-03-29T15:48:06.363Z,51.28
2023-03-29T15:50:36.623Z,50.96
2023-03-29T15:53:15.131Z,51.63
2023-03-29T15:55:52.583Z,54.31
2023-03-29T15:58:29.241Z,52.26
2023-03-29T16:01:16.596Z,50.59
2023-03-29T16:03:48.101Z,50.13
2023-03-29T16:06:19.611Z,49.61
2023-03-29T16:08:49.579Z,48.24
2023-03-29T16:11:19.410Z,48.90
2023-03-29T16:13:50.633Z,49.84
2023-03-29T16:16:20.844Z,50.24
2023-03-29T16:18:51.816Z,53.54
2023-03-29T16:21:23.954Z,51.41
2023-03-29T16:23:54.336Z,50.77
2023-03-29T16:26:27.234Z,49.57
2023-03-29T16:28:58.796Z,50.34
2023-03-29T16:31:28.937Z,49.75
2023-03-29T16:33:58.714Z,47.70
2023-03-29T16:36:32.286Z,50.60
2023-03-29T16:39:03.176Z,50.41
2023-03-29T16:41:35.141Z,49.22
2023-03-29T16:44:05.839Z,50.66
2023-03-29T16:46:35.924Z,49.62
2023-03-29T16:49:09.256Z,47.91
2023-03-29T16:51:41.138Z,51.72
2023-03-29T16:54:13.516Z,46.64
2023-03-29T16:56:44.500Z,48.86
2023-03-29T16:59:16.406Z,48.12
2023-03-29T17:01:47.327Z,49.44
2023-03-29T17:04:17.671Z,47.43
2023-03-29T17:06:48.808Z,50.91
2023-03-29T17:09:19.373Z,47.42
2023-03-29T17:11:49.961Z,48.42
2023-03-29T17:14:20.576Z,48.77
2023-03-29T17:16:50.591Z,47.36
2023-03-29T17:19:21.210Z,48.36
2023-03-29T17:21:52.343Z,47.75
2023-03-29T17:24:22.608Z,46.95
2023-03-29T17:26:53.372Z,45.70
2023-03-29T17:29:24.645Z,48.06
2023-03-29T17:31:56.513Z,50.48
2023-03-29T17:34:30.033Z,50.36
2023-03-29T17:37:01.178Z,51.39
2023-03-29T17:39:33.225Z,51.95
2023-03-29T17:42:03.954Z,52.10
2023-03-29T17:44:35.031Z,52.61
2023-03-29T17:47:05.511Z,53.56
2023-03-29T17:49:35.644Z,54.24
2023-03-29T17:52:06.472Z,54.30
2023-03-29T17:54:36.280Z,54.83
2023-03-29T17:57:06.890Z,57.97
2023-03-29T17:59:39.731Z,53.78
2023-03-29T18:02:20.532Z,56.57
2023-03-29T18:04:51.993Z,51.97
2023-03-29T18:07:22.259Z,49.37
2023-03-29T18:09:53.053Z,47.78
2023-03-29T18:12:24.852Z,46.94
2023-03-29T18:14:57.973Z,45.79
2023-03-29T18:17:31.455Z,44.18
2023-03-29T18:20:02.246Z,43.56
2023-03-29T18:22:35.228Z,42.58
2023-03-29T18:25:08.214Z,40.91
2023-03-29T18:27:40.139Z,43.54
2023-03-29T18:30:11.288Z,45.50
2023-03-29T18:32:42.067Z,45.92
2023-03-29T18:35:13.730Z,44.13
2023-03-29T18:37:43.794Z,46.25
2023-03-29T18:40:14.013Z,42.72
2023-03-29T18:42:44.557Z,42.04
2023-03-29T18:45:14.962Z,39.33
2023-03-29T18:47:46.013Z,43.82
2023-03-29T18:50:16.248Z,48.25
2023-03-29T18:52:45.984Z,54.04
2023-03-29T18:55:17.154Z,53.75
2023-03-29T18:57:47.832Z,58.46
2023-03-29T19:00:18.974Z,60.59
2023-03-29T19:02:50.217Z,62.82
2023-03-29T19:05:21.483Z,63.84
2023-03-29T19:07:52.232Z,63.87
2023-03-29T19:10:22.623Z,69.40
2023-03-29T19:12:53.389Z,70.02
2023-03-29T19:15:23.822Z,69.97
2023-03-29T19:17:54.834Z,70.31
2023-03-29T19:20:26.742Z,65.76
2023-03-29T19:22:57.052Z,66.83
2023-03-29T19:25:27.141Z,65.57
2023-03-29T19:27:57.113Z,67.37
2023-03-29T19:30:28.726Z,66.73
2023-03-29T19:33:00.197Z,70.23
2023-03-29T19:35:30.432Z,72.55
2023-03-29T19:38:00.721Z,72.19
2023-03-29T19:40:31.544Z,72.11
2023-03-29T19:43:02.271Z,73.89
2023-03-29T19:45:33.908Z,72.12
2023-03-29T19:48:04.374Z,72.68
2023-03-29T19:50:35.099Z,70.26
2023-03-29T19:53:05.954Z,83.09
2023-03-29T19:55:36.048Z,87.01
2023-03-29T19:58:07.362Z,89.25
2023-03-29T20:00:39.928Z,90.26
2023-03-29T20:03:11.096Z,91.80
2023-03-29T20:05:42.231Z,93.46
2023-03-29T20:08:12.317Z,95.61
2023-03-29T20:10:43.605Z,95.82
2023-03-29T20:13:21.869Z,96.36
2023-03-29T20:15:58.039Z,97.08
2023-03-29T20:18:27.955Z,97.70
2023-03-29T20:20:59.450Z,98.79
2023-03-29T20:23:30.024Z,97.96
2023-03-29T20:26:00.118Z,98.13
2023-03-29T20:28:31.192Z,97.69
2023-03-29T20:31:07.741Z,98.20
2023-03-29T20:33:40.200Z,96.70
2023-03-29T20:36:10.432Z,97.61
2023-03-29T20:38:40.604Z,97.72
2023-03-29T20:41:12.033Z,97.99
2023-03-29T20:43:43.069Z,98.17
2023-03-29T20:46:20.337Z,98.83
2023-03-29T20:48:56.505Z,99.25
2023-03-29T20:51:31.647Z,97.00
2023-03-29T20:54:03.960Z,96.23
2023-03-29T20:56:41.085Z,95.70
2023-03-29T20:59:12.004Z,96.06
2023-03-29T21:01:43.497Z,96.17
2023-03-29T21:04:13.700Z,96.82
2023-03-29T21:06:46.871Z,96.03
2023-03-29T21:09:17.889Z,96.29
2023-03-29T21:11:49.198Z,96.29
2023-03-29T21:14:22.792Z,96.50
2023-03-29T21:16:53.771Z,96.86
2023-03-29T21:19:23.897Z,97.39
2023-03-29T21:21:57.054Z,97.04
2023-03-29T21:24:27.324Z,96.87
2023-03-29T21:26:57.396Z,96.52
2023-03-29T21:29:28.393Z,96.27
2023-03-29T21:31:58.463Z,95.96
2023-03-29T21:34:29.087Z,95.62
2023-03-29T21:36:59.214Z,95.32
2023-03-29T21:39:30.651Z,93.59
2023-03-29T21:42:00.717Z,94.01
2023-03-29T21:44:31.986Z,93.96
2023-03-29T21:47:05.892Z,94.38
2023-03-29T21:49:36.122Z,94.89
2023-03-29T21:52:05.970Z,94.34
2023-03-29T21:54:37.218Z,95.48
2023-03-29T21:57:11.522Z,94.81
2023-03-29T21:59:42.301Z,94.63
2023-03-29T22:02:12.278Z,92.69
2023-03-29T22:04:43.874Z,90.06
2023-03-29T22:07:15.048Z,89.87
2023-03-29T22:09:45.634Z,89.56
2023-03-29T22:12:15.852Z,90.47
2023-03-29T22:14:46.315Z,92.26
2023-03-29T22:17:17.403Z,92.15
2023-03-29T22:19:48.797Z,92.47
2023-03-29T22:22:18.850Z,92.16
2023-03-29T22:24:49.638Z,91.66
2023-03-29T22:27:20.277Z,92.62
2023-03-29T22:29:50.526Z,94.18
2023-03-29T22:32:20.302Z,94.78
2023-03-29T22:34:52.768Z,95.42
2023-03-29T22:37:26.775Z,95.90
2023-03-29T22:39:57.480Z,96.63
2023-03-29T22:42:27.280Z,97.68
2023-03-29T22:44:57.758Z,97.97
2023-03-29T22:47:27.968Z,98.62
2023-03-29T22:49:58.694Z,99.97
2023-03-29T22:52:29.030Z,99.67
2023-03-29T22:54:59.121Z,99.99
2023-03-29T22:57:29.013Z,99.99
2023-03-29T22:59:59.305Z,99.99
2023-03-29T23:02:29.331Z,99.99
2023-03-29T23:05:01.028Z,99.99
2023-03-29T23:07:31.635Z,99.99
2023-03-29T23:10:01.910Z,99.99
2023-03-29T23:12:33.011Z,99.99
2023-03-29T23:15:04.857Z,99.99
2023-03-29T23:17:35.883Z,99.99
2023-03-29T23:20:07.535Z,99.99
2023-03-29T23:22:38.640Z,99.99
2023-03-29T23:25:09.886Z,99.99
2023-03-29T23:27:41.134Z,99.99
2023-03-29T23:30:13.100Z,99.99
2023-03-29T23:32:43.853Z,99.99
2023-03-29T23:35:14.926Z,99.99
2023-03-29T23:37:46.054Z,99.99
2023-03-29T23:40:17.209Z,99.99
2023-03-29T23:42:49.486Z,99.99
2023-03-29T23:45:20.876Z,99.99
2023-03-29T23:47:50.954Z,99.99
2023-03-29T23:50:20.848Z,99.99
2023-03-29T23:52:52.655Z,99.99
2023-03-29T23:55:23.683Z,99.99
2023-03-29T23:57:54.083Z,99.99
